sensor_id;sensor_type;location;lat;lon;timestamp;P1;durP1;ratioP1;P2;durP2;ratioP2
20104;SDS011;10212;42.714;23.310;2022-08-11T00:01:52;8.50;;;5.93;;
20104;SDS011;10212;42.714;23.310;2022-08-11T00:06:54;7.77;;;5.70;;
20104;SDS011;10212;42.714;23.310;2022-08-11T00:11:56;6.95;;;6.03;;
20104;SDS011;10212;42.714;23.310;2022-08-11T00:16:59;7.57;;;6.00;;
20104;SDS011;10212;42.714;23.310;2022-08-11T00:22:01;8.70;;;6.15;;
20104;SDS011;10212;42.714;23.310;2022-08-11T00:27:03;6.22;;;5.32;;
20104;SDS011;10212;42.714;23.310;2022-08-11T00:32:05;7.03;;;6.13;;
20104;SDS011;10212;42.714;23.310;2022-08-11T00:37:16;6.88;;;5.97;;
20104;SDS011;10212;42.714;23.310;2022-08-11T00:47:54;6.85;;;5.60;;
20104;SDS011;10212;42.714;23.310;2022-08-11T01:52:51;8.15;;;6.57;;
20104;SDS011;10212;42.714;23.310;2022-08-11T02:20:26;13.93;;;9.60;;
20104;SDS011;10212;42.714;23.310;2022-08-11T02:36:17;9.38;;;7.78;;
20104;SDS011;10212;42.714;23.310;2022-08-11T02:47:17;9.18;;;7.53;;
20104;SDS011;10212;42.714;23.310;2022-08-11T02:52:42;8.82;;;7.90;;
20104;SDS011;10212;42.714;23.310;2022-08-11T02:58:01;8.75;;;7.90;;
20104;SDS011;10212;42.714;23.310;2022-08-11T03:08:28;11.23;;;8.30;;
20104;SDS011;10212;42.714;23.310;2022-08-11T03:13:31;9.82;;;8.82;;
20104;SDS011;10212;42.714;23.310;2022-08-11T03:19:02;11.73;;;9.20;;
20104;SDS011;10212;42.714;23.310;2022-08-11T03:29:29;9.75;;;8.32;;
20104;SDS011;10212;42.714;23.310;2022-08-11T03:34:33;13.65;;;7.97;;
20104;SDS011;10212;42.714;23.310;2022-08-11T03:39:59;12.35;;;8.73;;
20104;SDS011;10212;42.714;23.310;2022-08-11T04:23:24;11.80;;;9.70;;
20104;SDS011;10212;42.714;23.310;2022-08-11T04:44:31;12.02;;;10.25;;
20104;SDS011;10212;42.714;23.310;2022-08-11T05:06:52;14.20;;;9.02;;
20104;SDS011;10212;42.714;23.310;2022-08-11T05:12:17;15.43;;;9.50;;
20104;SDS011;10212;42.714;23.310;2022-08-11T05:17:36;10.85;;;9.40;;
20104;SDS011;10212;42.714;23.310;2022-08-11T05:23:00;10.10;;;8.85;;
20104;SDS011;10212;42.714;23.310;2022-08-11T05:28:30;10.93;;;9.55;;
20104;SDS011;10212;42.714;23.310;2022-08-11T05:33:54;11.32;;;9.52;;
20104;SDS011;10212;42.714;23.310;2022-08-11T05:39:20;11.52;;;9.10;;
20104;SDS011;10212;42.714;23.310;2022-08-11T05:44:43;10.88;;;8.82;;
20104;SDS011;10212;42.714;23.310;2022-08-11T05:50:06;14.52;;;11.30;;
20104;SDS011;10212;42.714;23.310;2022-08-11T05:55:27;12.23;;;9.27;;
20104;SDS011;10212;42.714;23.310;2022-08-11T06:00:47;14.25;;;9.50;;
20104;SDS011;10212;42.714;23.310;2022-08-11T06:05:48;17.05;;;9.73;;
20104;SDS011;10212;42.714;23.310;2022-08-11T06:10:49;14.82;;;9.60;;
20104;SDS011;10212;42.714;23.310;2022-08-11T06:15:50;12.98;;;9.85;;
20104;SDS011;10212;42.714;23.310;2022-08-11T06:20:52;14.43;;;9.52;;
20104;SDS011;10212;42.714;23.310;2022-08-11T06:25:55;13.13;;;9.73;;
20104;SDS011;10212;42.714;23.310;2022-08-11T06:30:58;11.93;;;8.80;;
20104;SDS011;10212;42.714;23.310;2022-08-11T06:36:04;17.30;;;9.75;;
20104;SDS011;10212;42.714;23.310;2022-08-11T06:41:17;10.07;;;8.10;;
20104;SDS011;10212;42.714;23.310;2022-08-11T06:46:30;9.10;;;8.20;;
20104;SDS011;10212;42.714;23.310;2022-08-11T06:51:33;10.63;;;7.25;;
20104;SDS011;10212;42.714;23.310;2022-08-11T06:56:37;16.77;;;8.50;;
20104;SDS011;10212;42.714;23.310;2022-08-11T07:12:52;7.03;;;6.32;;
20104;SDS011;10212;42.714;23.310;2022-08-11T07:18:24;8.30;;;6.25;;
20104;SDS011;10212;42.714;23.310;2022-08-11T07:23:45;7.13;;;5.50;;
20104;SDS011;10212;42.714;23.310;2022-08-11T07:29:05;8.40;;;6.07;;
20104;SDS011;10212;42.714;23.310;2022-08-11T07:34:18;9.57;;;6.63;;
20104;SDS011;10212;42.714;23.310;2022-08-11T07:39:21;7.18;;;6.15;;
20104;SDS011;10212;42.714;23.310;2022-08-11T07:44:24;7.93;;;6.05;;
20104;SDS011;10212;42.714;23.310;2022-08-11T07:49:28;6.78;;;5.45;;
20104;SDS011;10212;42.714;23.310;2022-08-11T07:54:50;8.70;;;5.75;;
20104;SDS011;10212;42.714;23.310;2022-08-11T07:59:52;5.68;;;4.68;;
20104;SDS011;10212;42.714;23.310;2022-08-11T08:05:14;5.53;;;4.40;;
20104;SDS011;10212;42.714;23.310;2022-08-11T08:10:35;5.53;;;4.85;;
20104;SDS011;10212;42.714;23.310;2022-08-11T08:15:55;5.72;;;5.20;;
20104;SDS011;10212;42.714;23.310;2022-08-11T08:21:15;5.82;;;5.32;;
20104;SDS011;10212;42.714;23.310;2022-08-11T08:26:16;6.03;;;5.43;;
20104;SDS011;10212;42.714;23.310;2022-08-11T08:31:36;5.90;;;5.40;;
20104;SDS011;10212;42.714;23.310;2022-08-11T08:36:36;6.63;;;5.07;;
20104;SDS011;10212;42.714;23.310;2022-08-11T08:41:41;6.38;;;5.72;;
20104;SDS011;10212;42.714;23.310;2022-08-11T08:46:43;5.80;;;5.25;;
20104;SDS011;10212;42.714;23.310;2022-08-11T08:51:48;6.13;;;5.07;;
20104;SDS011;10212;42.714;23.310;2022-08-11T08:56:53;5.90;;;5.30;;
20104;SDS011;10212;42.714;23.310;2022-08-11T09:02:04;6.40;;;5.80;;
20104;SDS011;10212;42.714;23.310;2022-08-11T09:07:07;6.93;;;5.70;;
20104;SDS011;10212;42.714;23.310;2022-08-11T09:12:11;6.55;;;5.55;;
20104;SDS011;10212;42.714;23.310;2022-08-11T09:17:12;6.43;;;5.40;;
20104;SDS011;10212;42.714;23.310;2022-08-11T09:22:20;6.00;;;4.90;;
20104;SDS011;10212;42.714;23.310;2022-08-11T09:27:39;5.10;;;4.47;;
20104;SDS011;10212;42.714;23.310;2022-08-11T09:32:41;6.68;;;4.95;;
20104;SDS011;10212;42.714;23.310;2022-08-11T09:37:42;7.35;;;5.90;;
20104;SDS011;10212;42.714;23.310;2022-08-11T09:43:03;6.28;;;5.35;;
20104;SDS011;10212;42.714;23.310;2022-08-11T09:48:24;7.18;;;5.78;;
20104;SDS011;10212;42.714;23.310;2022-08-11T09:53:29;6.68;;;5.10;;
20104;SDS011;10212;42.714;23.310;2022-08-11T09:58:34;6.35;;;5.75;;
20104;SDS011;10212;42.714;23.310;2022-08-11T10:03:35;5.15;;;4.63;;
20104;SDS011;10212;42.714;23.310;2022-08-11T10:08:41;5.68;;;5.18;;
20104;SDS011;10212;42.714;23.310;2022-08-11T10:13:44;6.60;;;5.20;;
20104;SDS011;10212;42.714;23.310;2022-08-11T10:19:07;8.27;;;4.93;;
20104;SDS011;10212;42.714;23.310;2022-08-11T10:24:09;5.25;;;4.70;;
20104;SDS011;10212;42.714;23.310;2022-08-11T10:29:30;5.88;;;4.68;;
20104;SDS011;10212;42.714;23.310;2022-08-11T10:34:50;6.20;;;4.80;;
20104;SDS011;10212;42.714;23.310;2022-08-11T10:39:51;6.00;;;4.32;;
20104;SDS011;10212;42.714;23.310;2022-08-11T10:44:56;7.50;;;4.97;;
20104;SDS011;10212;42.714;23.310;2022-08-11T10:49:58;5.40;;;4.43;;
20104;SDS011;10212;42.714;23.310;2022-08-11T10:55:17;5.15;;;4.13;;
20104;SDS011;10212;42.714;23.310;2022-08-11T11:00:36;10.30;;;5.20;;
20104;SDS011;10212;42.714;23.310;2022-08-11T11:05:37;7.45;;;5.20;;
20104;SDS011;10212;42.714;23.310;2022-08-11T11:10:40;5.40;;;4.57;;
20104;SDS011;10212;42.714;23.310;2022-08-11T11:15:41;11.60;;;4.65;;
20104;SDS011;10212;42.714;23.310;2022-08-11T11:21:09;13.98;;;5.57;;
20104;SDS011;10212;42.714;23.310;2022-08-11T11:26:26;5.65;;;4.93;;
20104;SDS011;10212;42.714;23.310;2022-08-11T11:36:52;7.18;;;4.88;;
20104;SDS011;10212;42.714;23.310;2022-08-11T11:41:57;6.30;;;5.70;;
20104;SDS011;10212;42.714;23.310;2022-08-11T11:47:00;7.15;;;5.32;;
20104;SDS011;10212;42.714;23.310;2022-08-11T11:52:01;7.32;;;5.88;;
20104;SDS011;10212;42.714;23.310;2022-08-11T11:57:02;7.00;;;5.50;;
20104;SDS011;10212;42.714;23.310;2022-08-11T12:02:22;7.40;;;5.55;;
20104;SDS011;10212;42.714;23.310;2022-08-11T12:07:23;7.25;;;4.40;;
20104;SDS011;10212;42.714;23.310;2022-08-11T12:12:42;6.60;;;5.20;;
20104;SDS011;10212;42.714;23.310;2022-08-11T12:18:02;7.78;;;4.30;;
20104;SDS011;10212;42.714;23.310;2022-08-11T12:23:03;4.70;;;4.20;;
20104;SDS011;10212;42.714;23.310;2022-08-11T12:28:23;4.88;;;4.03;;
20104;SDS011;10212;42.714;23.310;2022-08-11T12:33:24;4.30;;;3.90;;
20104;SDS011;10212;42.714;23.310;2022-08-11T12:38:26;3.60;;;3.28;;
20104;SDS011;10212;42.714;23.310;2022-08-11T12:43:27;3.50;;;3.20;;
20104;SDS011;10212;42.714;23.310;2022-08-11T12:48:51;4.13;;;3.72;;
20104;SDS011;10212;42.714;23.310;2022-08-11T12:54:16;6.25;;;3.08;;
20104;SDS011;10212;42.714;23.310;2022-08-11T12:59:24;4.53;;;3.40;;
20104;SDS011;10212;42.714;23.310;2022-08-11T13:04:43;3.80;;;3.50;;
20104;SDS011;10212;42.714;23.310;2022-08-11T13:10:15;5.05;;;3.72;;
20104;SDS011;10212;42.714;23.310;2022-08-11T13:15:55;5.95;;;3.85;;
20104;SDS011;10212;42.714;23.310;2022-08-11T13:20:56;5.15;;;3.67;;
20104;SDS011;10212;42.714;23.310;2022-08-11T13:25:58;4.18;;;3.78;;
20104;SDS011;10212;42.714;23.310;2022-08-11T13:30:58;3.22;;;2.90;;
20104;SDS011;10212;42.714;23.310;2022-08-11T13:36:11;3.57;;;3.20;;
20104;SDS011;10212;42.714;23.310;2022-08-11T13:41:14;3.78;;;3.17;;
20104;SDS011;10212;42.714;23.310;2022-08-11T13:46:35;4.78;;;3.10;;
20104;SDS011;10212;42.714;23.310;2022-08-11T13:51:37;3.00;;;2.58;;
20104;SDS011;10212;42.714;23.310;2022-08-11T13:56:41;3.75;;;3.00;;
20104;SDS011;10212;42.714;23.310;2022-08-11T14:01:46;2.90;;;2.70;;
20104;SDS011;10212;42.714;23.310;2022-08-11T14:06:49;9.02;;;2.67;;
20104;SDS011;10212;42.714;23.310;2022-08-11T14:11:56;3.55;;;3.25;;
20104;SDS011;10212;42.714;23.310;2022-08-11T14:17:17;6.32;;;3.50;;
20104;SDS011;10212;42.714;23.310;2022-08-11T14:22:19;5.30;;;3.70;;
20104;SDS011;10212;42.714;23.310;2022-08-11T14:27:21;6.07;;;3.70;;
20104;SDS011;10212;42.714;23.310;2022-08-11T14:32:30;4.90;;;3.22;;
20104;SDS011;10212;42.714;23.310;2022-08-11T14:37:30;4.15;;;3.80;;
20104;SDS011;10212;42.714;23.310;2022-08-11T14:42:31;4.20;;;3.80;;
20104;SDS011;10212;42.714;23.310;2022-08-11T14:47:51;5.00;;;4.05;;
20104;SDS011;10212;42.714;23.310;2022-08-11T14:52:55;4.30;;;3.92;;
20104;SDS011;10212;42.714;23.310;2022-08-11T14:58:00;5.45;;;3.83;;
20104;SDS011;10212;42.714;23.310;2022-08-11T15:03:04;5.10;;;3.97;;
20104;SDS011;10212;42.714;23.310;2022-08-11T15:08:09;4.35;;;3.95;;
20104;SDS011;10212;42.714;23.310;2022-08-11T15:13:16;13.13;;;4.65;;
20104;SDS011;10212;42.714;23.310;2022-08-11T15:18:18;11.25;;;6.03;;
20104;SDS011;10212;42.714;23.310;2022-08-11T15:23:23;4.82;;;3.53;;
20104;SDS011;10212;42.714;23.310;2022-08-11T15:28:43;4.72;;;3.40;;
20104;SDS011;10212;42.714;23.310;2022-08-11T15:34:06;5.65;;;3.50;;
20104;SDS011;10212;42.714;23.310;2022-08-11T15:39:35;6.87;;;3.40;;
20104;SDS011;10212;42.714;23.310;2022-08-11T15:45:02;7.70;;;3.50;;
20104;SDS011;10212;42.714;23.310;2022-08-11T15:50:26;6.95;;;5.63;;
20104;SDS011;10212;42.714;23.310;2022-08-11T15:55:30;3.30;;;3.00;;
20104;SDS011;10212;42.714;23.310;2022-08-11T16:05:54;4.60;;;3.50;;
20104;SDS011;10212;42.714;23.310;2022-08-11T16:10:55;5.55;;;4.38;;
20104;SDS011;10212;42.714;23.310;2022-08-11T16:15:57;4.65;;;3.85;;
20104;SDS011;10212;42.714;23.310;2022-08-11T16:21:16;8.05;;;3.72;;
20104;SDS011;10212;42.714;23.310;2022-08-11T16:26:19;4.72;;;3.60;;
20104;SDS011;10212;42.714;23.310;2022-08-11T16:31:22;5.43;;;3.83;;
20104;SDS011;10212;42.714;23.310;2022-08-11T16:36:24;5.43;;;3.40;;
20104;SDS011;10212;42.714;23.310;2022-08-11T16:41:44;6.22;;;5.30;;
20104;SDS011;10212;42.714;23.310;2022-08-11T16:47:06;3.88;;;3.58;;
20104;SDS011;10212;42.714;23.310;2022-08-11T16:52:11;4.18;;;3.70;;
20104;SDS011;10212;42.714;23.310;2022-08-11T16:57:14;4.93;;;4.25;;
20104;SDS011;10212;42.714;23.310;2022-08-11T17:02:36;4.93;;;3.40;;
20104;SDS011;10212;42.714;23.310;2022-08-11T17:08:02;5.38;;;4.03;;
20104;SDS011;10212;42.714;23.310;2022-08-11T17:13:27;3.75;;;3.20;;
20104;SDS011;10212;42.714;23.310;2022-08-11T17:18:30;8.63;;;4.32;;
20104;SDS011;10212;42.714;23.310;2022-08-11T17:23:40;4.78;;;3.63;;
20104;SDS011;10212;42.714;23.310;2022-08-11T17:28:50;4.85;;;3.25;;
20104;SDS011;10212;42.714;23.310;2022-08-11T17:33:55;4.13;;;3.30;;
20104;SDS011;10212;42.714;23.310;2022-08-11T17:39:15;3.80;;;3.50;;
20104;SDS011;10212;42.714;23.310;2022-08-11T17:44:17;5.55;;;4.18;;
20104;SDS011;10212;42.714;23.310;2022-08-11T17:49:37;10.27;;;9.23;;
20104;SDS011;10212;42.714;23.310;2022-08-11T17:54:39;5.45;;;4.95;;
20104;SDS011;10212;42.714;23.310;2022-08-11T17:59:59;4.68;;;3.85;;
20104;SDS011;10212;42.714;23.310;2022-08-11T18:05:02;6.47;;;5.53;;
20104;SDS011;10212;42.714;23.310;2022-08-11T18:10:05;5.82;;;4.45;;
20104;SDS011;10212;42.714;23.310;2022-08-11T18:15:26;10.50;;;6.15;;
20104;SDS011;10212;42.714;23.310;2022-08-11T18:20:45;7.13;;;4.93;;
20104;SDS011;10212;42.714;23.310;2022-08-11T18:26:05;4.32;;;3.80;;
20104;SDS011;10212;42.714;23.310;2022-08-11T18:31:26;4.68;;;4.10;;
20104;SDS011;10212;42.714;23.310;2022-08-11T18:36:51;3.95;;;3.30;;
20104;SDS011;10212;42.714;23.310;2022-08-11T18:42:20;6.95;;;3.80;;
20104;SDS011;10212;42.714;23.310;2022-08-11T18:47:40;4.68;;;3.90;;
20104;SDS011;10212;42.714;23.310;2022-08-11T18:53:01;5.32;;;3.75;;
20104;SDS011;10212;42.714;23.310;2022-08-11T18:58:26;5.25;;;3.58;;
20104;SDS011;10212;42.714;23.310;2022-08-11T19:03:47;6.70;;;4.00;;
20104;SDS011;10212;42.714;23.310;2022-08-11T19:09:09;4.78;;;3.78;;
20104;SDS011;10212;42.714;23.310;2022-08-11T19:14:32;7.47;;;3.97;;
20104;SDS011;10212;42.714;23.310;2022-08-11T19:19:54;3.60;;;3.30;;
20104;SDS011;10212;42.714;23.310;2022-08-11T19:25:15;7.13;;;3.60;;
20104;SDS011;10212;42.714;23.310;2022-08-11T19:30:35;5.68;;;3.50;;
20104;SDS011;10212;42.714;23.310;2022-08-11T19:35:55;5.07;;;3.90;;
20104;SDS011;10212;42.714;23.310;2022-08-11T19:41:15;5.35;;;3.60;;
20104;SDS011;10212;42.714;23.310;2022-08-11T19:46:35;4.50;;;3.65;;
20104;SDS011;10212;42.714;23.310;2022-08-11T19:51:56;3.55;;;3.20;;
20104;SDS011;10212;42.714;23.310;2022-08-11T19:57:17;4.25;;;3.85;;
20104;SDS011;10212;42.714;23.310;2022-08-11T20:02:37;9.98;;;6.97;;
20104;SDS011;10212;42.714;23.310;2022-08-11T20:07:57;6.40;;;4.03;;
20104;SDS011;10212;42.714;23.310;2022-08-11T20:13:17;4.32;;;3.92;;
20104;SDS011;10212;42.714;23.310;2022-08-11T20:18:39;6.45;;;3.47;;
20104;SDS011;10212;42.714;23.310;2022-08-11T20:23:59;3.50;;;3.20;;
20104;SDS011;10212;42.714;23.310;2022-08-11T20:29:20;5.72;;;3.47;;
20104;SDS011;10212;42.714;23.310;2022-08-11T20:34:45;4.55;;;4.00;;
20104;SDS011;10212;42.714;23.310;2022-08-11T20:40:05;8.25;;;4.30;;
20104;SDS011;10212;42.714;23.310;2022-08-11T20:45:26;5.32;;;3.42;;
20104;SDS011;10212;42.714;23.310;2022-08-11T20:50:46;3.95;;;3.53;;
20104;SDS011;10212;42.714;23.310;2022-08-11T20:56:07;7.35;;;3.90;;
20104;SDS011;10212;42.714;23.310;2022-08-11T21:01:27;6.10;;;3.72;;
20104;SDS011;10212;42.714;23.310;2022-08-11T21:06:47;8.63;;;4.00;;
20104;SDS011;10212;42.714;23.310;2022-08-11T21:12:09;5.03;;;4.30;;
20104;SDS011;10212;42.714;23.310;2022-08-11T21:17:30;8.52;;;4.40;;
20104;SDS011;10212;42.714;23.310;2022-08-11T21:23:04;6.40;;;4.43;;
20104;SDS011;10212;42.714;23.310;2022-08-11T21:28:27;7.07;;;4.90;;
20104;SDS011;10212;42.714;23.310;2022-08-11T21:33:47;7.70;;;4.53;;
20104;SDS011;10212;42.714;23.310;2022-08-11T21:39:07;6.68;;;4.40;;
20104;SDS011;10212;42.714;23.310;2022-08-11T21:44:28;6.50;;;4.07;;
20104;SDS011;10212;42.714;23.310;2022-08-11T21:49:47;5.97;;;4.20;;
20104;SDS011;10212;42.714;23.310;2022-08-11T21:55:06;6.82;;;4.10;;
20104;SDS011;10212;42.714;23.310;2022-08-11T22:00:26;6.50;;;4.00;;
20104;SDS011;10212;42.714;23.310;2022-08-11T22:05:45;4.78;;;4.30;;
20104;SDS011;10212;42.714;23.310;2022-08-11T22:11:05;5.68;;;4.38;;
20104;SDS011;10212;42.714;23.310;2022-08-11T22:16:25;5.20;;;4.70;;
20104;SDS011;10212;42.714;23.310;2022-08-11T22:21:44;5.55;;;4.40;;
20104;SDS011;10212;42.714;23.310;2022-08-11T22:27:04;7.65;;;4.35;;
20104;SDS011;10212;42.714;23.310;2022-08-11T22:32:23;4.45;;;4.03;;
20104;SDS011;10212;42.714;23.310;2022-08-11T22:37:43;4.22;;;3.83;;
20104;SDS011;10212;42.714;23.310;2022-08-11T22:43:03;5.25;;;3.75;;
20104;SDS011;10212;42.714;23.310;2022-08-11T22:48:23;5.88;;;4.00;;
20104;SDS011;10212;42.714;23.310;2022-08-11T22:53:46;4.53;;;4.13;;
20104;SDS011;10212;42.714;23.310;2022-08-11T22:59:05;5.90;;;4.10;;
20104;SDS011;10212;42.714;23.310;2022-08-11T23:04:25;4.97;;;4.18;;
20104;SDS011;10212;42.714;23.310;2022-08-11T23:09:44;5.60;;;3.80;;
20104;SDS011;10212;42.714;23.310;2022-08-11T23:15:04;4.80;;;4.32;;
20104;SDS011;10212;42.714;23.310;2022-08-11T23:20:24;4.38;;;4.03;;
20104;SDS011;10212;42.714;23.310;2022-08-11T23:25:44;4.35;;;3.95;;
20104;SDS011;10212;42.714;23.310;2022-08-11T23:31:03;5.57;;;3.80;;
20104;SDS011;10212;42.714;23.310;2022-08-11T23:36:24;4.38;;;3.90;;
20104;SDS011;10212;42.714;23.310;2022-08-11T23:41:43;4.68;;;4.22;;
20104;SDS011;10212;42.714;23.310;2022-08-11T23:47:02;4.63;;;3.90;;
20104;SDS011;10212;42.714;23.310;2022-08-11T23:52:24;4.53;;;4.13;;
20104;SDS011;10212;42.714;23.310;2022-08-11T23:57:45;5.25;;;4.43;;
